Time;durP1;ratioP1;P1;durP2;ratioP2;P2;SDS_P1;SDS_P2;PMS_P1;PMS_P2;Temp;Humidity;BMP_temperature;BMP_pressure;BME280_temperature;BME280_humidity;BME280_pressure;Samples;Min_cycle;Max_cycle;Signal;HPM_P1;HPM_P2
2021/07/14 00:00:38;;;;;;;1.95;1.85;;;23.80;90.40;;;;;;4192651;28;20091;-52
2021/07/14 00:03:00;;;;;;;1.17;1.17;;;23.80;90.40;;;;;;4193176;28;21005;-51
2021/07/14 00:05:23;;;;;;;1.55;1.45;;;23.80;90.40;;;;;;4192609;28;20055;-52
2021/07/14 00:07:47;;;;;;;0.80;0.80;;;23.80;90.40;;;;;;4192833;28;20153;-51
2021/07/14 00:10:10;;;;;;;1.38;1.38;;;23.80;90.40;;;;;;4176571;28;20213;-51
2021/07/14 00:12:32;;;;;;;1.73;1.65;;;23.80;90.50;;;;;;4176009;28;20080;-50
2021/07/14 00:15:05;;;;;;;0.35;0.35;;;23.80;90.50;;;;;;4178816;28;20041;-51
2021/07/14 00:17:42;;;;;;;0.50;0.50;;;23.80;90.50;;;;;;4192811;28;20055;-51
2021/07/14 00:22:46;;;;;;;2.83;2.63;;;23.70;90.50;;;;;;4207467;28;20135;-52
2021/07/14 00:25:11;;;;;;;3.00;0.90;;;23.70;90.50;;;;;;4200928;27;20574;-53
2021/07/14 00:27:38;;;;;;;1.95;1.85;;;23.70;90.50;;;;;;4209442;28;20438;-48
2021/07/14 00:30:07;;;;;;;0.75;0.75;;;23.70;90.50;;;;;;4208882;28;20109;-52
2021/07/14 00:32:31;;;;;;;0.80;0.75;;;23.70;90.50;;;;;;4209468;28;20059;-52
2021/07/14 00:34:54;;;;;;;1.45;1.35;;;23.70;90.50;;;;;;4209419;28;20067;-48
2021/07/14 00:37:18;;;;;;;4.55;1.90;;;23.70;90.50;;;;;;4209361;28;20056;-49
2021/07/14 00:39:41;;;;;;;0.35;0.35;;;23.70;90.50;;;;;;4192284;28;20052;-54
2021/07/14 00:42:04;;;;;;;0.80;0.80;;;23.70;90.50;;;;;;4195744;28;20040;-53
2021/07/14 00:44:26;;;;;;;0.77;0.77;;;23.70;90.50;;;;;;4209162;28;20052;-52
2021/07/14 00:46:49;;;;;;;0.30;0.30;;;23.70;90.50;;;;;;4208902;28;20517;-50
2021/07/14 00:49:13;;;;;;;0.00;0.00;;;23.70;90.50;;;;;;4208933;28;20494;-48
2021/07/14 00:51:35;;;;;;;1.65;1.55;;;23.70;90.50;;;;;;4208808;28;20048;-49
2021/07/14 00:53:58;;;;;;;0.93;0.50;;;23.70;90.50;;;;;;4208238;28;20052;-52
2021/07/14 00:56:21;;;;;;;1.73;1.65;;;23.70;90.50;;;;;;4209150;28;20047;-49
2021/07/14 00:58:43;;;;;;;0.30;0.30;;;23.70;90.50;;;;;;4192121;28;20051;-50
2021/07/14 01:01:05;;;;;;;0.50;0.50;;;23.70;90.50;;;;;;4191948;28;20410;-52
2021/07/14 01:03:32;;;;;;;3.50;3.20;;;23.70;90.50;;;;;;4189768;28;20052;-52
2021/07/14 01:05:56;;;;;;;2.60;1.27;;;23.70;90.50;;;;;;4204896;28;20058;-48
2021/07/14 01:08:27;;;;;;;0.20;0.20;;;23.70;90.50;;;;;;4208434;28;20417;-52
2021/07/14 01:10:52;;;;;;;0.40;0.40;;;23.70;90.50;;;;;;4207957;28;20051;-51
2021/07/14 01:13:22;;;;;;;0.15;0.15;;;23.60;90.40;;;;;;4208630;28;20062;-50
2021/07/14 01:15:52;;;;;;;0.95;0.95;;;23.70;90.50;;;;;;4208324;28;20115;-54
2021/07/14 01:18:19;;;;;;;2.08;1.05;;;23.60;90.50;;;;;;4208721;28;20054;-52
2021/07/14 01:20:58;;;;;;;0.17;0.17;;;23.60;90.50;;;;;;4207436;28;20078;-51
2021/07/14 01:23:28;;;;;;;0.38;0.38;;;23.60;90.50;;;;;;4235544;27;20043;-52
2021/07/14 01:26:12;;;;;;;0.30;0.30;;;23.60;90.50;;;;;;4208196;28;20052;-50
2021/07/14 01:28:38;;;;;;;2.20;1.48;;;23.60;90.50;;;;;;4208216;28;20414;-52
2021/07/14 01:31:01;;;;;;;0.00;0.00;;;23.60;90.50;;;;;;4208263;28;20051;-48
2021/07/14 01:33:28;;;;;;;0.25;0.25;;;23.60;90.50;;;;;;4191763;28;20559;-48
2021/07/14 01:35:53;;;;;;;1.17;1.17;;;23.60;90.50;;;;;;4191685;28;20049;-52
2021/07/14 01:38:19;;;;;;;0.77;0.77;;;23.60;90.50;;;;;;4199345;28;20086;-51
2021/07/14 01:40:42;;;;;;;0.40;0.40;;;23.60;90.50;;;;;;4207679;28;20048;-48
2021/07/14 01:43:05;;;;;;;0.65;0.65;;;23.60;90.50;;;;;;4208334;28;20052;-48
2021/07/14 01:45:31;;;;;;;1.20;1.20;;;23.60;90.50;;;;;;4208096;28;20064;-52
2021/07/14 01:47:55;;;;;;;1.40;1.40;;;23.60;90.50;;;;;;4191549;28;20139;-51
2021/07/14 01:50:18;;;;;;;0.28;0.28;;;23.60;90.50;;;;;;4195561;28;20139;-51
2021/07/14 01:52:42;;;;;;;0.68;0.68;;;23.60;90.50;;;;;;4208217;28;20059;-50
2021/07/14 01:55:08;;;;;;;1.38;0.75;;;23.60;90.50;;;;;;4191402;28;20411;-52
2021/07/14 01:57:33;;;;;;;0.60;0.60;;;23.60;90.50;;;;;;4205872;28;20060;-52
2021/07/14 01:59:55;;;;;;;0.70;0.70;;;23.60;90.50;;;;;;4207509;28;20414;-53
2021/07/14 02:02:22;;;;;;;2.47;1.90;;;23.60;90.50;;;;;;4207952;28;20052;-53
2021/07/14 02:04:45;;;;;;;0.85;0.85;;;23.60;90.50;;;;;;4207910;28;20402;-53
2021/07/14 02:07:11;;;;;;;2.92;1.23;;;23.60;90.50;;;;;;4207553;28;20066;-51
2021/07/14 02:09:35;;;;;;;1.13;1.13;;;23.60;90.50;;;;;;4207442;28;20086;-48
2021/07/14 02:11:58;;;;;;;1.38;1.38;;;23.60;90.50;;;;;;4207696;27;20096;-52
2021/07/14 02:14:26;;;;;;;0.45;0.45;;;23.60;90.40;;;;;;4207542;27;20055;-52
2021/07/14 02:16:56;;;;;;;0.20;0.20;;;23.60;90.40;;;;;;4207752;28;20058;-54
2021/07/14 02:19:22;;;;;;;0.43;0.43;;;23.60;90.40;;;;;;4207681;28;20583;-53
2021/07/14 02:21:45;;;;;;;1.02;1.02;;;23.60;90.40;;;;;;4190947;28;20407;-52
2021/07/14 02:24:10;;;;;;;0.25;0.25;;;23.60;90.40;;;;;;4174539;28;20052;-50
2021/07/14 02:26:32;;;;;;;1.10;0.90;;;23.60;90.40;;;;;;4174710;28;20060;-49
2021/07/14 02:28:55;;;;;;;0.95;0.95;;;23.60;90.40;;;;;;4179682;28;20048;-52
2021/07/14 02:31:17;;;;;;;0.70;0.70;;;23.60;90.40;;;;;;4174403;28;20055;-51
2021/07/14 02:33:40;;;;;;;0.30;0.30;;;23.60;90.40;;;;;;4174241;28;20491;-49
2021/07/14 02:36:06;;;;;;;5.82;1.55;;;23.60;90.40;;;;;;4174410;28;20137;-51
2021/07/14 02:38:33;;;;;;;0.22;0.22;;;23.60;90.40;;;;;;4188492;28;20048;-54
2021/07/14 02:41:01;;;;;;;3.05;0.35;;;23.60;90.40;;;;;;4190977;28;20045;-52
2021/07/14 02:43:27;;;;;;;0.85;0.85;;;23.60;90.40;;;;;;4190495;28;20052;-52
2021/07/14 02:45:51;;;;;;;1.50;1.50;;;23.60;90.80;;;;;;4190741;28;20059;-51
2021/07/14 02:48:14;;;;;;;0.85;0.85;;;23.60;90.40;;;;;;4191009;28;20080;-49
2021/07/14 02:50:38;;;;;;;0.00;0.00;;;23.60;90.40;;;;;;4190853;28;20048;-54
2021/07/14 02:53:08;;;;;;;0.70;0.70;;;23.60;90.40;;;;;;4190640;28;20053;-53
2021/07/14 02:55:33;;;;;;;0.45;0.45;;;23.60;90.40;;;;;;4190099;28;20049;-49
2021/07/14 02:57:58;;;;;;;1.83;0.80;;;23.60;90.40;;;;;;4190580;28;20042;-50
2021/07/14 03:00:21;;;;;;;0.50;0.50;;;23.60;90.40;;;;;;4190812;28;20055;-53
2021/07/14 03:02:45;;;;;;;0.43;0.43;;;23.60;90.40;;;;;;4190617;28;20411;-51
2021/07/14 03:05:08;;;;;;;0.45;0.45;;;23.60;90.40;;;;;;4189041;28;20139;-52
2021/07/14 03:07:32;;;;;;;0.52;0.52;;;23.60;90.40;;;;;;4190709;28;20063;-50
2021/07/14 03:09:56;;;;;;;0.52;0.52;;;23.50;90.40;;;;;;4190816;28;20055;-52
2021/07/14 03:12:21;;;;;;;1.38;1.20;;;23.60;90.40;;;;;;4190682;28;20045;-52
2021/07/14 03:14:47;;;;;;;1.38;1.38;;;23.50;90.40;;;;;;4190566;28;20052;-55
2021/07/14 03:17:10;;;;;;;12.70;2.35;;;23.50;90.40;;;;;;4190615;28;20770;-55
2021/07/14 03:19:34;;;;;;;0.82;0.82;;;23.50;90.40;;;;;;4189755;28;20651;-50
2021/07/14 03:21:57;;;;;;;0.10;0.10;;;23.50;90.40;;;;;;4190086;28;21012;-51
2021/07/14 03:24:19;;;;;;;0.80;0.80;;;23.50;90.40;;;;;;4174018;28;20051;-53
2021/07/14 03:26:43;;;;;;;0.52;0.52;;;23.50;90.40;;;;;;4206870;28;20052;-49
2021/07/14 03:29:05;;;;;;;0.52;0.52;;;23.50;90.30;;;;;;4210105;27;20043;-53
2021/07/14 03:31:29;;;;;;;0.98;0.98;;;23.50;90.40;;;;;;4210456;27;20051;-54
2021/07/14 03:33:51;;;;;;;0.30;0.30;;;23.50;90.40;;;;;;4210228;27;20048;-50
2021/07/14 03:36:15;;;;;;;2.95;2.72;;;23.50;90.40;;;;;;4210009;28;20059;-50
2021/07/14 03:38:38;;;;;;;1.75;1.40;;;23.50;90.40;;;;;;4193439;28;20090;-50
2021/07/14 03:41:02;;;;;;;2.63;0.77;;;23.50;90.40;;;;;;4201625;28;20048;-49
2021/07/14 03:43:27;;;;;;;1.05;1.05;;;23.50;90.80;;;;;;4210182;28;20601;-52
2021/07/14 03:45:52;;;;;;;0.93;0.90;;;23.50;90.40;;;;;;4193326;28;20063;-52
2021/07/14 03:48:17;;;;;;;0.70;0.57;;;23.50;90.40;;;;;;4193040;28;20059;-50
2021/07/14 03:50:39;;;;;;;1.20;1.20;;;23.50;90.40;;;;;;4192986;28;20066;-52
2021/07/14 03:53:03;;;;;;;0.32;0.32;;;23.50;90.40;;;;;;4192611;28;20055;-48
2021/07/14 03:55:26;;;;;;;1.13;0.52;;;23.50;90.40;;;;;;4193259;28;20059;-52
2021/07/14 03:57:49;;;;;;;0.52;0.52;;;23.50;90.40;;;;;;4193073;28;20075;-54
2021/07/14 04:00:13;;;;;;;1.60;1.60;;;23.50;90.40;;;;;;4193179;28;20048;-54
2021/07/14 04:02:37;;;;;;;1.30;1.30;;;23.50;90.40;;;;;;4191378;28;20076;-48
2021/07/14 04:04:59;;;;;;;1.40;1.38;;;23.50;90.50;;;;;;4192708;28;20770;-50
2021/07/14 04:07:26;;;;;;;0.35;0.35;;;23.50;90.50;;;;;;4193023;28;20051;-52
2021/07/14 04:09:49;;;;;;;0.93;0.82;;;23.50;90.60;;;;;;4193145;28;20060;-53
2021/07/14 04:12:11;;;;;;;3.90;3.60;;;23.50;90.60;;;;;;4193029;28;20135;-52
2021/07/14 04:14:33;;;;;;;1.17;1.17;;;23.50;90.60;;;;;;4192862;28;20102;-49
2021/07/14 04:16:58;;;;;;;2.13;2.05;;;23.50;90.60;;;;;;4191133;28;20052;-48
2021/07/14 04:19:20;;;;;;;0.30;0.30;;;23.50;90.60;;;;;;4192297;28;20411;-50
2021/07/14 04:21:43;;;;;;;0.45;0.45;;;23.50;90.60;;;;;;4192269;28;20048;-51
2021/07/14 04:24:05;;;;;;;0.20;0.20;;;23.50;90.60;;;;;;4192206;28;20079;-50
2021/07/14 04:26:28;;;;;;;1.65;1.55;;;23.50;90.60;;;;;;4200163;27;20494;-50
2021/07/14 04:28:52;;;;;;;0.10;0.10;;;23.50;90.60;;;;;;4209341;27;20101;-55
2021/07/14 04:31:14;;;;;;;0.60;0.60;;;23.50;90.60;;;;;;4209135;27;20138;-49
2021/07/14 04:33:38;;;;;;;0.17;0.17;;;23.50;90.60;;;;;;4207666;28;20040;-48
2021/07/14 04:36:00;;;;;;;1.25;1.20;;;23.50;90.60;;;;;;4209177;28;20044;-54
2021/07/14 04:38:22;;;;;;;2.70;2.45;;;23.50;90.60;;;;;;4208917;28;20074;-52
2021/07/14 04:40:44;;;;;;;0.35;0.35;;;23.50;90.60;;;;;;4207763;28;20085;-52
2021/07/14 04:43:08;;;;;;;0.50;0.50;;;23.50;90.60;;;;;;4208589;27;20039;-50
2021/07/14 04:45:30;;;;;;;0.57;0.57;;;23.50;90.60;;;;;;4208850;27;20051;-51
2021/07/14 04:47:52;;;;;;;0.40;0.40;;;23.50;90.60;;;;;;4209313;27;20040;-53
2021/07/14 04:50:16;;;;;;;0.47;0.47;;;23.50;90.60;;;;;;4194617;27;20137;-53
2021/07/14 04:52:38;;;;;;;1.08;1.08;;;23.50;90.60;;;;;;4191904;28;20415;-53
2021/07/14 04:55:01;;;;;;;1.25;1.17;;;23.50;90.60;;;;;;4192299;28;20094;-52
2021/07/14 04:57:23;;;;;;;0.52;0.52;;;23.50;90.60;;;;;;4191781;28;20052;-52
2021/07/14 04:59:45;;;;;;;0.68;0.68;;;23.50;90.60;;;;;;4191863;28;20437;-49
2021/07/14 05:02:08;;;;;;;0.85;0.85;;;23.50;90.60;;;;;;4191996;28;20064;-52
2021/07/14 05:04:30;;;;;;;1.35;1.35;;;23.50;90.60;;;;;;4191570;28;20053;-52
2021/07/14 05:06:53;;;;;;;1.00;1.00;;;23.50;90.50;;;;;;4191670;28;20060;-52
2021/07/14 05:09:16;;;;;;;0.10;0.10;;;23.50;90.60;;;;;;4191926;28;20790;-54
2021/07/14 05:11:38;;;;;;;1.13;1.13;;;23.50;90.50;;;;;;4192035;28;20128;-53
2021/07/14 05:14:00;;;;;;;1.23;0.77;;;23.50;90.50;;;;;;4190759;28;20048;-53
2021/07/14 05:16:22;;;;;;;0.95;0.43;;;23.50;90.50;;;;;;4192054;28;20125;-48
2021/07/14 05:18:45;;;;;;;2.38;1.02;;;23.50;90.50;;;;;;4191971;28;20040;-48
2021/07/14 05:21:07;;;;;;;0.25;0.25;;;23.50;90.50;;;;;;4191964;28;20052;-52
2021/07/14 05:23:31;;;;;;;0.63;0.63;;;23.50;90.60;;;;;;4184649;28;20040;-49
2021/07/14 05:25:53;;;;;;;1.35;1.20;;;23.50;90.50;;;;;;4191848;28;20055;-51
2021/07/14 05:28:15;;;;;;;1.08;0.95;;;23.50;90.50;;;;;;4191755;28;20483;-53
2021/07/14 05:30:39;;;;;;;1.05;1.05;;;23.50;90.60;;;;;;4191506;28;20049;-50
2021/07/14 05:33:01;;;;;;;0.55;0.55;;;23.60;90.70;;;;;;4191664;28;20102;-50
2021/07/14 05:35:24;;;;;;;0.50;0.50;;;23.50;90.60;;;;;;4190347;28;20748;-49
2021/07/14 05:37:46;;;;;;;0.75;0.75;;;23.60;90.60;;;;;;4189574;28;20123;-51
2021/07/14 05:40:10;;;;;;;0.30;0.30;;;23.60;90.50;;;;;;4191209;28;20064;-47
2021/07/14 05:42:32;;;;;;;0.20;0.20;;;23.60;90.50;;;;;;4191245;28;20060;-49
2021/07/14 05:44:54;;;;;;;0.70;0.70;;;23.60;90.40;;;;;;4191461;28;20048;-54
2021/07/14 05:47:17;;;;;;;0.47;0.47;;;23.50;90.40;;;;;;4208098;28;20135;-48
2021/07/14 05:49:39;;;;;;;0.57;0.57;;;23.60;90.40;;;;;;4207525;28;20047;-47
2021/07/14 05:52:01;;;;;;;0.70;0.70;;;23.60;90.30;;;;;;4208149;28;20052;-53
2021/07/14 05:54:27;;;;;;;0.43;0.43;;;23.60;90.30;;;;;;4207985;28;20047;-52
2021/07/14 05:56:50;;;;;;;0.50;0.50;;;23.60;90.30;;;;;;4207964;28;20051;-52
2021/07/14 05:59:13;;;;;;;0.35;0.35;;;23.60;90.30;;;;;;4208069;28;20567;-47
2021/07/14 06:01:37;;;;;;;0.90;0.90;;;23.60;90.30;;;;;;4207327;28;20051;-51
2021/07/14 06:03:59;;;;;;;1.67;1.08;;;23.50;90.70;;;;;;4207272;28;20478;-52
2021/07/14 06:06:22;;;;;;;0.65;0.65;;;23.50;90.20;;;;;;4205795;28;20059;-51
2021/07/14 06:08:44;;;;;;;1.35;0.95;;;23.50;90.20;;;;;;4206996;28;20075;-53
2021/07/14 06:11:06;;;;;;;0.32;0.32;;;23.50;90.20;;;;;;4207028;28;20063;-52
2021/07/14 06:13:30;;;;;;;1.52;0.50;;;23.50;90.20;;;;;;4205578;28;20051;-53
2021/07/14 06:15:52;;;;;;;0.93;0.93;;;23.50;90.20;;;;;;4192183;28;20079;-53
2021/07/14 06:18:14;;;;;;;0.10;0.10;;;23.50;90.20;;;;;;4208016;28;20048;-52
2021/07/14 06:20:36;;;;;;;0.40;0.40;;;23.50;90.20;;;;;;4207471;28;20502;-50
2021/07/14 06:22:58;;;;;;;0.28;0.28;;;23.50;90.20;;;;;;4205901;28;20056;-48
2021/07/14 06:25:20;;;;;;;1.65;1.63;;;23.50;90.60;;;;;;4206166;28;20036;-54
2021/07/14 06:27:43;;;;;;;0.43;0.43;;;23.50;90.20;;;;;;4194505;28;20048;-50
2021/07/14 06:30:09;;;;;;;1.60;1.48;;;23.50;90.20;;;;;;4207245;28;20149;-49
2021/07/14 06:32:31;;;;;;;0.75;0.75;;;23.50;90.20;;;;;;4206888;28;20044;-56
2021/07/14 06:34:53;;;;;;;2.03;1.15;;;23.50;90.20;;;;;;4207689;28;20052;-54
2021/07/14 06:37:15;;;;;;;0.22;0.22;;;23.50;90.30;;;;;;4206960;28;20048;-55
2021/07/14 06:39:37;;;;;;;0.35;0.35;;;23.50;92.30;;;;;;4207234;28;20409;-54
2021/07/14 06:41:59;;;;;;;0.65;0.65;;;23.50;94.70;;;;;;4207984;28;20051;-53
2021/07/14 06:44:22;;;;;;;0.32;0.32;;;23.60;95.90;;;;;;4194193;28;20055;-52
2021/07/14 06:46:45;;;;;;;1.13;0.73;;;23.60;96.00;;;;;;4200112;28;20051;-52
2021/07/14 06:49:08;;;;;;;1.00;1.00;;;23.60;96.00;;;;;;4205996;28;20048;-53
2021/07/14 06:51:30;;;;;;;1.45;1.35;;;23.60;95.50;;;;;;4207463;28;20153;-56
2021/07/14 06:53:52;;;;;;;2.10;1.73;;;23.60;95.10;;;;;;4207444;28;20490;-53
2021/07/14 06:56:15;;;;;;;3.08;1.65;;;23.60;94.50;;;;;;4206801;28;20565;-56
2021/07/14 06:58:39;;;;;;;0.32;0.32;;;23.60;94.00;;;;;;4207150;28;20105;-56
2021/07/14 07:01:01;;;;;;;0.68;0.68;;;23.60;93.40;;;;;;4197369;28;20048;-50
2021/07/14 07:03:25;;;;;;;0.35;0.35;;;23.60;93.00;;;;;;4210284;28;20494;-56
2021/07/14 07:05:48;;;;;;;2.92;0.65;;;23.60;92.80;;;;;;4210521;28;20060;-57
2021/07/14 07:08:10;;;;;;;4.70;1.88;;;23.60;92.60;;;;;;4210165;28;20113;-55
2021/07/14 07:10:32;;;;;;;0.03;0.03;;;23.60;92.50;;;;;;4200406;28;20079;-55
2021/07/14 07:12:55;;;;;;;0.30;0.30;;;23.60;92.30;;;;;;4210451;28;20413;-54
2021/07/14 07:15:18;;;;;;;0.30;0.30;;;23.60;92.20;;;;;;4210368;28;20494;-51
2021/07/14 07:17:41;;;;;;;2.55;0.98;;;23.60;92.00;;;;;;4209562;28;20130;-52
2021/07/14 07:20:05;;;;;;;0.80;0.55;;;23.60;91.90;;;;;;4209146;27;20048;-53
2021/07/14 07:22:27;;;;;;;11.57;1.17;;;23.60;91.90;;;;;;4210061;27;20122;-53
2021/07/14 07:24:50;;;;;;;0.10;0.10;;;23.60;91.80;;;;;;4210290;28;20048;-55
2021/07/14 07:27:12;;;;;;;0.35;0.35;;;23.60;91.70;;;;;;4210636;28;20101;-53
2021/07/14 07:29:34;;;;;;;1.27;1.17;;;23.60;91.70;;;;;;4210085;28;20066;-52
2021/07/14 07:31:56;;;;;;;0.38;0.38;;;23.60;91.60;;;;;;4209877;28;20109;-52
2021/07/14 07:34:19;;;;;;;0.75;0.75;;;23.60;91.50;;;;;;4209974;28;20491;-50
2021/07/14 07:36:43;;;;;;;0.20;0.20;;;23.60;91.50;;;;;;4210099;28;20044;-56
2021/07/14 07:39:06;;;;;;;6.60;1.38;;;23.60;91.40;;;;;;4210391;28;20048;-54
2021/07/14 07:41:29;;;;;;;4.20;1.95;;;23.60;91.40;;;;;;4210177;28;20207;-56
2021/07/14 07:43:51;;;;;;;0.38;0.38;;;23.60;91.40;;;;;;4209842;28;20437;-55
2021/07/14 07:46:14;;;;;;;0.38;0.38;;;23.60;91.30;;;;;;4209810;28;20047;-54
2021/07/14 07:48:36;;;;;;;1.58;1.48;;;23.60;91.30;;;;;;4209767;28;20602;-55
2021/07/14 07:51:00;;;;;;;1.15;1.05;;;23.60;91.30;;;;;;4210180;28;20083;-55
2021/07/14 07:53:24;;;;;;;1.13;1.08;;;23.60;91.30;;;;;;4209395;28;20048;-54
2021/07/14 07:55:46;;;;;;;0.40;0.40;;;23.60;91.20;;;;;;4209776;28;20067;-55
2021/07/14 07:58:09;;;;;;;0.30;0.30;;;23.60;91.20;;;;;;4209757;28;20115;-56
2021/07/14 08:00:31;;;;;;;0.43;0.43;;;23.60;91.20;;;;;;4210035;28;20498;-55
2021/07/14 08:02:53;;;;;;;0.38;0.38;;;23.60;91.10;;;;;;4209642;28;20048;-52
2021/07/14 08:05:15;;;;;;;9.63;2.30;;;23.60;91.10;;;;;;4208171;28;20058;-55
2021/07/14 08:07:37;;;;;;;0.28;0.28;;;23.60;91.10;;;;;;4208230;28;20052;-54
2021/07/14 08:10:01;;;;;;;5.30;2.30;;;23.60;91.10;;;;;;4194279;28;20045;-55
2021/07/14 08:12:23;;;;;;;0.82;0.82;;;23.60;91.10;;;;;;4192162;28;20037;-53
2021/07/14 08:14:45;;;;;;;0.63;0.63;;;23.60;91.10;;;;;;4192913;28;20052;-55
2021/07/14 08:17:07;;;;;;;0.63;0.63;;;23.60;91.00;;;;;;4192765;28;20040;-52
2021/07/14 08:19:29;;;;;;;0.15;0.15;;;23.70;91.40;;;;;;4192859;28;20575;-53
2021/07/14 08:21:51;;;;;;;0.45;0.45;;;23.60;91.00;;;;;;4185577;28;20056;-51
2021/07/14 08:24:14;;;;;;;0.55;0.55;;;23.70;91.00;;;;;;4192264;28;20056;-53
2021/07/14 08:26:37;;;;;;;0.47;0.47;;;23.70;91.00;;;;;;4192482;28;20094;-51
2021/07/14 08:29:00;;;;;;;0.10;0.10;;;23.70;91.00;;;;;;4192639;28;20132;-54
2021/07/14 08:31:22;;;;;;;0.73;0.65;;;23.70;90.90;;;;;;4184149;28;20067;-54
2021/07/14 08:33:44;;;;;;;0.65;0.65;;;23.70;90.90;;;;;;4191666;28;20041;-53
2021/07/14 08:36:07;;;;;;;1.42;1.35;;;23.70;90.90;;;;;;4192022;28;20076;-54
2021/07/14 08:38:29;;;;;;;0.10;0.10;;;23.70;90.90;;;;;;4191642;28;20139;-52
2021/07/14 08:40:53;;;;;;;0.85;0.85;;;23.70;91.00;;;;;;4177074;28;20133;-53
2021/07/14 08:43:19;;;;;;;11.65;2.50;;;23.70;91.20;;;;;;4175930;28;20146;-52
2021/07/14 08:45:41;;;;;;;0.10;0.10;;;23.70;91.20;;;;;;4175259;28;20151;-55
2021/07/14 08:48:04;;;;;;;0.43;0.43;;;23.80;91.10;;;;;;4192438;28;20055;-55
2021/07/14 08:50:27;;;;;;;0.20;0.20;;;23.80;91.00;;;;;;4192372;28;20392;-54
2021/07/14 08:52:50;;;;;;;0.20;0.20;;;23.80;90.90;;;;;;4189425;28;20049;-52
2021/07/14 08:55:13;;;;;;;1.23;1.08;;;23.80;90.90;;;;;;4192026;28;20087;-50
2021/07/14 08:57:35;;;;;;;0.00;0.00;;;23.80;90.80;;;;;;4192458;28;20106;-55
2021/07/14 08:59:58;;;;;;;0.47;0.47;;;23.80;90.80;;;;;;4192381;28;20044;-53
2021/07/14 09:02:20;;;;;;;0.20;0.20;;;23.80;90.80;;;;;;4192095;28;20044;-56
2021/07/14 09:04:43;;;;;;;0.25;0.25;;;23.80;90.80;;;;;;4201829;27;20502;-54
2021/07/14 09:07:08;;;;;;;0.70;0.70;;;23.80;90.80;;;;;;4191584;28;20141;-54
2021/07/14 09:09:30;;;;;;;1.10;1.02;;;23.80;90.80;;;;;;4192117;28;20051;-53
2021/07/14 09:11:57;;;;;;;0.22;0.22;;;23.80;90.70;;;;;;4191910;28;20059;-53
2021/07/14 09:14:27;;;;;;;1.27;1.02;;;23.80;90.70;;;;;;4191814;28;20047;-54
2021/07/14 09:16:51;;;;;;;;;;;23.80;90.70;;;;;;4209105;28;20454;-55
2021/07/14 09:19:15;;;;;;;0.90;0.90;;;23.90;90.80;;;;;;4208531;28;19920;-53
2021/07/14 09:21:41;;;;;;;1.45;1.35;;;23.80;90.70;;;;;;4208461;28;20054;-55
2021/07/14 09:24:24;;;;;;;0.30;0.30;;;23.90;90.80;;;;;;4207477;28;20047;-51
2021/07/14 09:26:46;;;;;;;0.30;0.30;;;23.90;90.70;;;;;;4208253;28;20093;-54
2021/07/14 09:29:08;;;;;;;0.75;0.75;;;23.90;90.70;;;;;;4208316;27;20102;-53
2021/07/14 09:31:31;;;;;;;0.80;0.80;;;23.90;90.70;;;;;;4205448;27;20490;-51
2021/07/14 09:33:54;;;;;;;0.47;0.47;;;23.90;90.70;;;;;;4181657;28;20121;-52
2021/07/14 09:36:17;;;;;;;0.20;0.20;;;23.90;90.70;;;;;;4191076;28;20164;-54
2021/07/14 09:38:40;;;;;;;0.03;0.03;;;23.90;90.70;;;;;;4192298;28;20076;-53
2021/07/14 09:41:05;;;;;;;1.17;1.05;;;24.00;90.70;;;;;;4207929;28;20048;-55
2021/07/14 09:43:29;;;;;;;0.50;0.50;;;24.00;90.60;;;;;;4208427;28;20051;-54
2021/07/14 09:45:53;;;;;;;0.38;0.38;;;24.00;90.60;;;;;;4207862;28;20105;-52
2021/07/14 09:48:18;;;;;;;1.25;1.15;;;24.10;90.90;;;;;;4191826;28;20048;-55
2021/07/14 09:50:43;;;;;;;0.80;0.80;;;24.10;90.50;;;;;;4195647;28;20129;-54
2021/07/14 09:53:08;;;;;;;0.55;0.55;;;24.10;90.50;;;;;;4195359;28;20041;-55
2021/07/14 09:55:31;;;;;;;0.17;0.17;;;24.10;90.40;;;;;;4208184;28;20050;-54
2021/07/14 09:58:16;;;;;;;0.10;0.10;;;24.10;90.40;;;;;;4208386;28;20047;-53
2021/07/14 10:00:43;;;;;;;0.98;0.98;;;24.20;90.40;;;;;;4207537;28;20052;-53
2021/07/14 10:03:06;;;;;;;0.35;0.35;;;24.20;90.30;;;;;;4207861;27;20097;-53
2021/07/14 10:05:28;;;;;;;0.08;0.08;;;24.20;90.20;;;;;;4207917;28;20047;-53
2021/07/14 10:07:52;;;;;;;0.88;0.88;;;24.30;90.20;;;;;;4207968;28;20051;-54
2021/07/14 10:10:15;;;;;;;0.22;0.22;;;24.30;90.10;;;;;;4207548;27;20051;-51
2021/07/14 10:12:39;;;;;;;0.28;0.28;;;24.30;90.10;;;;;;4207568;28;20052;-54
2021/07/14 10:15:20;;;;;;;0.43;0.43;;;24.40;90.10;;;;;;4207553;28;20052;-54
2021/07/14 10:17:45;;;;;;;0.20;0.20;;;24.40;90.00;;;;;;4207693;28;20486;-53
2021/07/14 10:20:25;;;;;;;0.73;0.52;;;24.40;90.40;;;;;;4207352;28;20044;-54
2021/07/14 10:22:48;;;;;;;0.13;0.13;;;24.40;89.90;;;;;;4207552;28;20055;-51
2021/07/14 10:25:12;;;;;;;1.27;1.13;;;24.50;90.00;;;;;;4207851;28;20139;-52
2021/07/14 10:27:35;;;;;;;0.43;0.43;;;24.50;89.90;;;;;;4207726;28;20101;-55
2021/07/14 10:29:57;;;;;;;0.45;0.45;;;24.50;89.80;;;;;;4207533;27;20048;-53
2021/07/14 10:32:20;;;;;;;0.13;0.13;;;24.50;89.80;;;;;;4207983;28;20133;-54
2021/07/14 10:34:42;;;;;;;1.38;0.73;;;24.50;89.70;;;;;;4205980;28;20044;-54
2021/07/14 10:37:05;;;;;;;0.05;0.05;;;24.50;89.60;;;;;;4211363;28;20044;-53
2021/07/14 10:39:30;;;;;;;0.15;0.15;;;24.60;89.60;;;;;;4200623;28;20044;-53
2021/07/14 10:41:54;;;;;;;0.60;0.60;;;24.60;89.60;;;;;;4220008;27;20042;-50
2021/07/14 10:44:19;;;;;;;1.17;1.17;;;24.60;89.60;;;;;;4228188;27;20143;-49
2021/07/14 10:46:42;;;;;;;1.80;0.95;;;24.60;89.50;;;;;;4223031;27;20121;-54
2021/07/14 10:49:06;;;;;;;0.93;0.93;;;24.60;89.50;;;;;;4210159;28;20051;-56
2021/07/14 10:51:31;;;;;;;0.40;0.40;;;24.60;89.50;;;;;;4211053;28;20074;-50
2021/07/14 10:53:58;;;;;;;0.05;0.05;;;24.60;89.50;;;;;;4208130;27;20130;-52
2021/07/14 10:56:21;;;;;;;0.65;0.65;;;24.70;89.50;;;;;;4210706;28;20036;-51
2021/07/14 10:58:48;;;;;;;0.98;0.98;;;24.70;89.40;;;;;;4209353;28;20048;-49
2021/07/14 11:01:10;;;;;;;0.43;0.43;;;24.70;89.40;;;;;;4211045;28;20056;-51
2021/07/14 11:03:46;;;;;;;0.50;0.50;;;24.70;89.30;;;;;;4210992;28;20076;-55
2021/07/14 11:06:10;;;;;;;0.47;0.47;;;24.70;89.40;;;;;;4209746;28;20059;-51
2021/07/14 11:08:40;;;;;;;0.00;0.00;;;24.70;89.30;;;;;;4207992;28;20055;-51
2021/07/14 11:11:05;;;;;;;0.30;0.30;;;24.80;89.30;;;;;;4177259;28;20048;-52
2021/07/14 11:13:32;;;;;;;0.75;0.75;;;24.80;89.30;;;;;;4185700;28;20044;-52
2021/07/14 11:15:56;;;;;;;0.30;0.30;;;24.80;89.20;;;;;;4193400;28;20053;-55
2021/07/14 11:18:40;;;;;;;0.00;0.00;;;24.80;89.10;;;;;;4191764;28;20044;-54
2021/07/14 11:21:02;;;;;;;0.17;0.17;;;24.80;89.20;;;;;;4194308;28;20090;-48
2021/07/14 11:23:26;;;;;;;1.05;1.05;;;24.80;89.10;;;;;;4210069;28;20059;-54
2021/07/14 11:25:50;;;;;;;0.30;0.30;;;24.80;89.30;;;;;;4208604;27;20048;-53
2021/07/14 11:28:12;;;;;;;3.50;1.35;;;24.90;90.00;;;;;;4210119;27;20051;-51
2021/07/14 11:30:46;;;;;;;0.28;0.28;;;24.80;89.20;;;;;;4209063;28;20055;-51
2021/07/14 11:33:19;;;;;;;1.17;1.10;;;24.80;89.10;;;;;;4209603;28;20081;-53
2021/07/14 11:35:45;;;;;;;3.63;1.25;;;24.80;89.10;;;;;;4209564;28;20059;-50
2021/07/14 11:38:18;;;;;;;0.47;0.47;;;24.80;89.10;;;;;;4209932;28;20503;-49
2021/07/14 11:40:41;;;;;;;0.20;0.20;;;24.80;89.00;;;;;;4209029;28;20142;-51
2021/07/14 11:43:14;;;;;;;0.57;0.57;;;24.80;89.00;;;;;;4209613;28;20047;-52
2021/07/14 11:45:37;;;;;;;0.52;0.52;;;24.80;88.90;;;;;;4208891;28;20055;-53
2021/07/14 11:48:00;;;;;;;0.03;0.03;;;24.80;88.90;;;;;;4209084;28;20130;-54
2021/07/14 11:50:49;;;;;;;0.65;0.52;;;24.90;88.80;;;;;;4210003;28;20126;-49
2021/07/14 11:53:30;;;;;;;0.43;0.43;;;24.90;88.80;;;;;;4209195;28;20048;-52
2021/07/14 11:55:59;;;;;;;2.58;1.15;;;24.90;88.80;;;;;;4193246;28;20053;-51
2021/07/14 11:58:54;;;;;;;2.63;0.65;;;24.90;88.80;;;;;;4183389;28;20047;-52
2021/07/14 12:01:48;;;;;;;0.40;0.40;;;24.90;88.80;;;;;;4209778;28;20544;-50
2021/07/14 12:04:11;;;;;;;0.10;0.10;;;24.90;88.70;;;;;;4209210;28;20058;-53
2021/07/14 12:06:38;;;;;;;0.82;0.82;;;24.90;88.70;;;;;;4209778;28;20055;-51
2021/07/14 12:09:01;;;;;;;1.48;1.38;;;24.90;88.80;;;;;;4209255;28;20044;-55
2021/07/14 12:11:23;;;;;;;0.85;0.85;;;24.90;88.70;;;;;;4209216;28;20078;-51
2021/07/14 12:13:48;;;;;;;0.50;0.50;;;24.90;88.70;;;;;;4209430;28;20044;-50
2021/07/14 12:16:11;;;;;;;0.95;0.95;;;24.90;88.70;;;;;;4207980;28;20063;-53
2021/07/14 12:18:34;;;;;;;0.20;0.20;;;24.90;88.70;;;;;;4208396;28;20474;-52
2021/07/14 12:20:57;;;;;;;0.50;0.38;;;24.90;88.70;;;;;;4191636;28;20056;-51
2021/07/14 12:23:22;;;;;;;0.95;0.82;;;24.90;88.80;;;;;;4192566;28;20473;-52
2021/07/14 12:25:44;;;;;;;0.68;0.68;;;24.90;88.80;;;;;;4192505;28;20371;-53
2021/07/14 12:28:10;;;;;;;0.88;0.88;;;24.90;88.70;;;;;;4192326;28;20052;-50
2021/07/14 12:30:33;;;;;;;0.77;0.73;;;24.90;88.80;;;;;;4192860;28;20048;-51
2021/07/14 12:32:57;;;;;;;0.20;0.20;;;24.90;88.70;;;;;;4192104;28;20048;-53
2021/07/14 12:35:25;;;;;;;5.10;1.83;;;24.90;88.70;;;;;;4192214;28;20048;-52